sensor_id;sensor_type;location;lat;lon;timestamp;pressure;altitude;pressure_sealevel;temperature;humidity
43119;BME280;28729;49.838;8.650;2023-02-19T00:03:04;100228.72;;;10.94;100.00
43119;BME280;28729;49.838;8.650;2023-02-19T00:07:06;100223.44;;;10.93;100.00
43119;BME280;28729;49.838;8.650;2023-02-19T00:11:10;100216.28;;;10.92;100.00
43119;BME280;28729;49.838;8.650;2023-02-19T00:15:12;100210.38;;;10.88;100.00
43119;BME280;28729;49.838;8.650;2023-02-19T00:19:16;100205.81;;;10.94;100.00
43119;BME280;28729;49.838;8.650;2023-02-19T00:23:18;100195.53;;;10.89;100.00
43119;BME280;28729;49.838;8.650;2023-02-19T00:27:20;100201.03;;;10.89;100.00
43119;BME280;28729;49.838;8.650;2023-02-19T00:31:24;100199.84;;;10.85;100.00
43119;BME280;28729;49.838;8.650;2023-02-19T00:35:26;100197.69;;;10.87;100.00
43119;BME280;28729;49.838;8.650;2023-02-19T00:39:28;100193.34;;;10.91;100.00
43119;BME280;28729;49.838;8.650;2023-02-19T00:43:29;100189.41;;;10.87;100.00
43119;BME280;28729;49.838;8.650;2023-02-19T00:47:31;100194.69;;;10.89;100.00
43119;BME280;28729;49.838;8.650;2023-02-19T00:51:35;100200.22;;;10.89;100.00
43119;BME280;28729;49.838;8.650;2023-02-19T00:55:37;100196.00;;;10.86;100.00
43119;BME280;28729;49.838;8.650;2023-02-19T00:59:39;100205.84;;;10.82;100.00
43119;BME280;28729;49.838;8.650;2023-02-19T01:03:40;100210.28;;;10.83;100.00
43119;BME280;28729;49.838;8.650;2023-02-19T01:07:42;100200.94;;;10.84;100.00
43119;BME280;28729;49.838;8.650;2023-02-19T01:11:44;100180.44;;;10.80;100.00
43119;BME280;28729;49.838;8.650;2023-02-19T01:15:45;100188.72;;;10.80;100.00
43119;BME280;28729;49.838;8.650;2023-02-19T01:19:47;100186.44;;;10.77;100.00
43119;BME280;28729;49.838;8.650;2023-02-19T01:23:50;100180.31;;;10.75;100.00
43119;BME280;28729;49.838;8.650;2023-02-19T01:27:54;100184.53;;;10.78;100.00
43119;BME280;28729;49.838;8.650;2023-02-19T01:31:56;100187.75;;;10.75;100.00
43119;BME280;28729;49.838;8.650;2023-02-19T01:35:58;100188.13;;;10.78;100.00
43119;BME280;28729;49.838;8.650;2023-02-19T01:40:00;100173.03;;;10.69;100.00
43119;BME280;28729;49.838;8.650;2023-02-19T01:45:10;100171.22;;;10.75;100.00
43119;BME280;28729;49.838;8.650;2023-02-19T01:48:35;100172.53;;;10.72;100.00
43119;BME280;28729;49.838;8.650;2023-02-19T01:52:38;100168.13;;;10.71;100.00
43119;BME280;28729;49.838;8.650;2023-02-19T01:56:41;100157.47;;;10.63;100.00
43119;BME280;28729;49.838;8.650;2023-02-19T02:00:44;100152.91;;;10.57;100.00
43119;BME280;28729;49.838;8.650;2023-02-19T02:04:45;100159.88;;;10.59;100.00
43119;BME280;28729;49.838;8.650;2023-02-19T02:08:50;100148.59;;;10.61;100.00
43119;BME280;28729;49.838;8.650;2023-02-19T02:13:12;100156.25;;;10.59;100.00
43119;BME280;28729;49.838;8.650;2023-02-19T02:17:24;100141.41;;;10.60;100.00
43119;BME280;28729;49.838;8.650;2023-02-19T02:21:34;100133.28;;;10.53;100.00
43119;BME280;28729;49.838;8.650;2023-02-19T02:34:13;100120.56;;;10.52;100.00
43119;BME280;28729;49.838;8.650;2023-02-19T02:38:19;100109.69;;;10.45;100.00
43119;BME280;28729;49.838;8.650;2023-02-19T02:42:22;100104.41;;;10.44;100.00
43119;BME280;28729;49.838;8.650;2023-02-19T02:46:40;100115.31;;;10.39;100.00
43119;BME280;28729;49.838;8.650;2023-02-19T02:50:59;100121.31;;;10.36;100.00
43119;BME280;28729;49.838;8.650;2023-02-19T02:55:09;100104.78;;;10.36;100.00
43119;BME280;28729;49.838;8.650;2023-02-19T02:59:13;100100.13;;;10.36;100.00
43119;BME280;28729;49.838;8.650;2023-02-19T03:03:17;100102.38;;;10.39;100.00
43119;BME280;28729;49.838;8.650;2023-02-19T03:07:21;100095.44;;;10.37;100.00
43119;BME280;28729;49.838;8.650;2023-02-19T03:11:23;100082.50;;;10.37;100.00
43119;BME280;28729;49.838;8.650;2023-02-19T03:15:48;100081.81;;;10.30;100.00
43119;BME280;28729;49.838;8.650;2023-02-19T03:20:20;100094.75;;;10.30;100.00
43119;BME280;28729;49.838;8.650;2023-02-19T03:24:28;100093.41;;;10.32;100.00
43119;BME280;28729;49.838;8.650;2023-02-19T03:28:52;100085.50;;;10.36;100.00
43119;BME280;28729;49.838;8.650;2023-02-19T03:33:19;100101.69;;;10.32;100.00
43119;BME280;28729;49.838;8.650;2023-02-19T03:37:36;100109.56;;;10.40;100.00
43119;BME280;28729;49.838;8.650;2023-02-19T03:42:30;100098.53;;;10.40;100.00
43119;BME280;28729;49.838;8.650;2023-02-19T03:46:10;100101.28;;;10.40;100.00
43119;BME280;28729;49.838;8.650;2023-02-19T03:50:24;100098.06;;;10.43;100.00
43119;BME280;28729;49.838;8.650;2023-02-19T03:55:05;100100.81;;;10.43;100.00
43119;BME280;28729;49.838;8.650;2023-02-19T03:59:17;100115.06;;;10.40;100.00
43119;BME280;28729;49.838;8.650;2023-02-19T04:03:28;100125.38;;;10.45;100.00
43119;BME280;28729;49.838;8.650;2023-02-19T04:07:34;100119.38;;;10.48;100.00
43119;BME280;28729;49.838;8.650;2023-02-19T04:11:38;100118.28;;;10.49;100.00
43119;BME280;28729;49.838;8.650;2023-02-19T04:15:43;100117.31;;;10.55;100.00
43119;BME280;28729;49.838;8.650;2023-02-19T04:19:48;100117.47;;;10.48;100.00
43119;BME280;28729;49.838;8.650;2023-02-19T04:23:51;100109.81;;;10.51;100.00
43119;BME280;28729;49.838;8.650;2023-02-19T04:27:53;100106.94;;;10.45;100.00
43119;BME280;28729;49.838;8.650;2023-02-19T04:31:55;100112.78;;;10.49;100.00
43119;BME280;28729;49.838;8.650;2023-02-19T04:35:56;100105.25;;;10.44;100.00
43119;BME280;28729;49.838;8.650;2023-02-19T04:39:58;100105.75;;;10.41;100.00
43119;BME280;28729;49.838;8.650;2023-02-19T04:43:59;100118.31;;;10.37;100.00
43119;BME280;28729;49.838;8.650;2023-02-19T04:48:01;100109.47;;;10.35;100.00
43119;BME280;28729;49.838;8.650;2023-02-19T04:52:03;100125.03;;;10.30;100.00
43119;BME280;28729;49.838;8.650;2023-02-19T04:56:07;100131.38;;;10.30;100.00
43119;BME280;28729;49.838;8.650;2023-02-19T05:00:09;100122.03;;;10.31;100.00
43119;BME280;28729;49.838;8.650;2023-02-19T05:04:11;100130.53;;;10.30;100.00
43119;BME280;28729;49.838;8.650;2023-02-19T05:08:12;100143.44;;;10.29;100.00
43119;BME280;28729;49.838;8.650;2023-02-19T05:12:14;100156.66;;;10.27;100.00
43119;BME280;28729;49.838;8.650;2023-02-19T05:16:16;100155.91;;;10.32;100.00
43119;BME280;28729;49.838;8.650;2023-02-19T05:20:18;100148.38;;;10.27;100.00
43119;BME280;28729;49.838;8.650;2023-02-19T05:24:19;100145.81;;;10.25;100.00
43119;BME280;28729;49.838;8.650;2023-02-19T05:28:21;100146.31;;;10.22;100.00
43119;BME280;28729;49.838;8.650;2023-02-19T05:32:29;100159.38;;;10.15;100.00
43119;BME280;28729;49.838;8.650;2023-02-19T05:36:30;100169.06;;;10.06;100.00
43119;BME280;28729;49.838;8.650;2023-02-19T05:40:33;100176.81;;;9.97;100.00
43119;BME280;28729;49.838;8.650;2023-02-19T05:44:35;100177.78;;;10.03;100.00
43119;BME280;28729;49.838;8.650;2023-02-19T05:48:36;100183.78;;;10.00;100.00
43119;BME280;28729;49.838;8.650;2023-02-19T05:52:38;100184.25;;;9.97;100.00
43119;BME280;28729;49.838;8.650;2023-02-19T05:56:40;100170.09;;;9.93;100.00
43119;BME280;28729;49.838;8.650;2023-02-19T06:00:42;100191.53;;;9.91;100.00
43119;BME280;28729;49.838;8.650;2023-02-19T06:04:44;100196.09;;;9.97;100.00
43119;BME280;28729;49.838;8.650;2023-02-19T06:08:47;100202.78;;;10.01;100.00
43119;BME280;28729;49.838;8.650;2023-02-19T06:12:53;100207.09;;;9.97;100.00
43119;BME280;28729;49.838;8.650;2023-02-19T06:16:55;100201.25;;;10.06;100.00
43119;BME280;28729;49.838;8.650;2023-02-19T06:21:04;100219.94;;;10.03;100.00
43119;BME280;28729;49.838;8.650;2023-02-19T06:25:06;100230.09;;;10.03;100.00
43119;BME280;28729;49.838;8.650;2023-02-19T06:29:12;100240.28;;;10.02;100.00
43119;BME280;28729;49.838;8.650;2023-02-19T06:33:14;100240.00;;;9.92;100.00
43119;BME280;28729;49.838;8.650;2023-02-19T06:37:15;100250.31;;;9.97;100.00
43119;BME280;28729;49.838;8.650;2023-02-19T06:41:17;100245.28;;;9.94;100.00
43119;BME280;28729;49.838;8.650;2023-02-19T06:45:19;100239.38;;;9.90;100.00
43119;BME280;28729;49.838;8.650;2023-02-19T06:49:21;100257.13;;;9.94;100.00
43119;BME280;28729;49.838;8.650;2023-02-19T06:53:23;100253.75;;;9.92;100.00
43119;BME280;28729;49.838;8.650;2023-02-19T06:57:24;100259.63;;;9.96;100.00
43119;BME280;28729;49.838;8.650;2023-02-19T07:01:27;100268.66;;;10.03;100.00
43119;BME280;28729;49.838;8.650;2023-02-19T07:05:29;100276.44;;;10.06;100.00
43119;BME280;28729;49.838;8.650;2023-02-19T07:09:31;100267.47;;;10.11;100.00
43119;BME280;28729;49.838;8.650;2023-02-19T07:13:33;100279.34;;;10.23;100.00
43119;BME280;28729;49.838;8.650;2023-02-19T07:17:34;100284.00;;;10.22;100.00
43119;BME280;28729;49.838;8.650;2023-02-19T07:21:36;100285.47;;;10.25;100.00
43119;BME280;28729;49.838;8.650;2023-02-19T07:25:38;100293.06;;;10.30;100.00
43119;BME280;28729;49.838;8.650;2023-02-19T07:29:40;100289.56;;;10.34;100.00
43119;BME280;28729;49.838;8.650;2023-02-19T07:33:42;100298.94;;;10.33;100.00
43119;BME280;28729;49.838;8.650;2023-02-19T07:37:44;100303.50;;;10.39;100.00
43119;BME280;28729;49.838;8.650;2023-02-19T07:41:46;100301.56;;;10.40;100.00
43119;BME280;28729;49.838;8.650;2023-02-19T07:46:04;100306.00;;;10.53;100.00
43119;BME280;28729;49.838;8.650;2023-02-19T07:50:06;100321.13;;;10.62;100.00
43119;BME280;28729;49.838;8.650;2023-02-19T07:54:07;100328.09;;;10.76;100.00
43119;BME280;28729;49.838;8.650;2023-02-19T07:58:09;100327.53;;;10.86;100.00
43119;BME280;28729;49.838;8.650;2023-02-19T08:02:15;100337.59;;;10.92;100.00
43119;BME280;28729;49.838;8.650;2023-02-19T08:06:36;100338.41;;;10.92;100.00
43119;BME280;28729;49.838;8.650;2023-02-19T08:10:38;100355.53;;;10.94;100.00
43119;BME280;28729;49.838;8.650;2023-02-19T08:14:58;100348.84;;;11.02;100.00
43119;BME280;28729;49.838;8.650;2023-02-19T08:19:00;100351.00;;;11.12;100.00
43119;BME280;28729;49.838;8.650;2023-02-19T08:23:02;100361.31;;;11.16;100.00
43119;BME280;28729;49.838;8.650;2023-02-19T08:27:04;100362.75;;;11.31;100.00
43119;BME280;28729;49.838;8.650;2023-02-19T08:31:07;100369.81;;;11.38;100.00
43119;BME280;28729;49.838;8.650;2023-02-19T08:35:10;100383.38;;;11.40;100.00
43119;BME280;28729;49.838;8.650;2023-02-19T08:39:12;100386.97;;;11.40;100.00
43119;BME280;28729;49.838;8.650;2023-02-19T08:43:15;100395.25;;;11.40;100.00
43119;BME280;28729;49.838;8.650;2023-02-19T08:47:17;100401.59;;;11.41;100.00
43119;BME280;28729;49.838;8.650;2023-02-19T08:51:19;100407.97;;;11.41;100.00
43119;BME280;28729;49.838;8.650;2023-02-19T08:55:21;100412.28;;;11.37;100.00
43119;BME280;28729;49.838;8.650;2023-02-19T08:59:22;100416.84;;;11.44;100.00
43119;BME280;28729;49.838;8.650;2023-02-19T09:03:24;100420.28;;;11.62;100.00
43119;BME280;28729;49.838;8.650;2023-02-19T09:07:26;100427.00;;;11.78;100.00
43119;BME280;28729;49.838;8.650;2023-02-19T09:11:28;100430.97;;;11.94;100.00
43119;BME280;28729;49.838;8.650;2023-02-19T09:15:29;100431.56;;;11.96;100.00
43119;BME280;28729;49.838;8.650;2023-02-19T09:19:32;100444.75;;;12.06;100.00
43119;BME280;28729;49.838;8.650;2023-02-19T09:23:34;100444.72;;;12.18;100.00
43119;BME280;28729;49.838;8.650;2023-02-19T09:27:36;100447.44;;;12.29;100.00
43119;BME280;28729;49.838;8.650;2023-02-19T09:31:38;100445.63;;;12.35;97.25
43119;BME280;28729;49.838;8.650;2023-02-19T09:35:40;100445.16;;;12.55;97.57
43119;BME280;28729;49.838;8.650;2023-02-19T09:39:41;100462.28;;;12.69;95.83
43119;BME280;28729;49.838;8.650;2023-02-19T09:43:43;100450.69;;;12.84;95.11
43119;BME280;28729;49.838;8.650;2023-02-19T09:47:45;100447.94;;;13.00;93.73
43119;BME280;28729;49.838;8.650;2023-02-19T09:51:51;100445.16;;;13.00;90.16
43119;BME280;28729;49.838;8.650;2023-02-19T09:55:55;100456.47;;;12.99;87.94
43119;BME280;28729;49.838;8.650;2023-02-19T10:00:34;100457.31;;;13.16;87.61
43119;BME280;28729;49.838;8.650;2023-02-19T10:04:28;100450.13;;;13.32;86.70
43119;BME280;28729;49.838;8.650;2023-02-19T10:08:32;100454.13;;;13.58;84.87
43119;BME280;28729;49.838;8.650;2023-02-19T10:12:34;100459.53;;;13.48;85.47
43119;BME280;28729;49.838;8.650;2023-02-19T10:16:39;100457.34;;;13.50;86.11
43119;BME280;28729;49.838;8.650;2023-02-19T10:20:42;100461.28;;;13.37;85.61
43119;BME280;28729;49.838;8.650;2023-02-19T10:24:44;100464.75;;;13.28;86.74
43119;BME280;28729;49.838;8.650;2023-02-19T10:28:48;100467.28;;;13.17;87.90
43119;BME280;28729;49.838;8.650;2023-02-19T10:37:13;100484.06;;;13.11;82.27
43119;BME280;28729;49.838;8.650;2023-02-19T10:41:19;100494.03;;;12.95;82.22
43119;BME280;28729;49.838;8.650;2023-02-19T10:45:27;100479.63;;;13.10;81.79
43119;BME280;28729;49.838;8.650;2023-02-19T10:49:38;100487.25;;;13.19;80.84
43119;BME280;28729;49.838;8.650;2023-02-19T10:53:46;100501.94;;;13.20;79.56
43119;BME280;28729;49.838;8.650;2023-02-19T10:57:48;100502.50;;;13.34;75.98
43119;BME280;28729;49.838;8.650;2023-02-19T11:06:25;100512.13;;;12.86;82.27
43119;BME280;28729;49.838;8.650;2023-02-19T11:10:33;100525.03;;;12.40;85.30
43119;BME280;28729;49.838;8.650;2023-02-19T11:14:41;100517.09;;;12.43;87.88
43119;BME280;28729;49.838;8.650;2023-02-19T11:18:43;100540.91;;;12.73;86.62
43119;BME280;28729;49.838;8.650;2023-02-19T11:22:45;100534.44;;;12.96;81.82
43119;BME280;28729;49.838;8.650;2023-02-19T11:26:47;100539.97;;;12.96;79.99
43119;BME280;28729;49.838;8.650;2023-02-19T11:36:23;100539.22;;;13.29;75.73
43119;BME280;28729;49.838;8.650;2023-02-19T11:40:10;100530.59;;;13.42;77.19
43119;BME280;28729;49.838;8.650;2023-02-19T11:53:25;100522.47;;;14.30;69.93
43119;BME280;28729;49.838;8.650;2023-02-19T12:06:21;100540.00;;;14.14;66.44
43119;BME280;28729;49.838;8.650;2023-02-19T12:33:43;100517.84;;;15.07;65.66
43119;BME280;28729;49.838;8.650;2023-02-19T12:46:55;100516.81;;;15.78;62.03
43119;BME280;28729;49.838;8.650;2023-02-19T12:51:08;100535.44;;;15.82;59.06
43119;BME280;28729;49.838;8.650;2023-02-19T12:55:24;100526.94;;;15.62;57.98
43119;BME280;28729;49.838;8.650;2023-02-19T12:59:33;100516.22;;;15.43;57.90
43119;BME280;28729;49.838;8.650;2023-02-19T13:03:40;100511.78;;;15.42;57.81
43119;BME280;28729;49.838;8.650;2023-02-19T13:15:56;100509.84;;;15.43;57.55
43119;BME280;28729;49.838;8.650;2023-02-19T13:20:17;100496.81;;;15.16;58.77
43119;BME280;28729;49.838;8.650;2023-02-19T13:24:33;100493.28;;;14.94;58.82
43119;BME280;28729;49.838;8.650;2023-02-19T13:33:36;100501.72;;;14.77;61.31
43119;BME280;28729;49.838;8.650;2023-02-19T13:37:40;100515.72;;;14.43;61.96
43119;BME280;28729;49.838;8.650;2023-02-19T13:41:49;100512.00;;;14.16;62.43
43119;BME280;28729;49.838;8.650;2023-02-19T13:46:01;100524.84;;;13.83;64.38
43119;BME280;28729;49.838;8.650;2023-02-19T13:50:05;100516.91;;;13.70;64.41
43119;BME280;28729;49.838;8.650;2023-02-19T13:54:21;100510.84;;;13.73;64.98
43119;BME280;28729;49.838;8.650;2023-02-19T14:02:33;100526.47;;;13.62;64.53
43119;BME280;28729;49.838;8.650;2023-02-19T14:11:05;100531.38;;;13.94;62.75
43119;BME280;28729;49.838;8.650;2023-02-19T14:23:41;100542.47;;;13.94;64.60
43119;BME280;28729;49.838;8.650;2023-02-19T14:27:44;100555.81;;;13.80;65.23
43119;BME280;28729;49.838;8.650;2023-02-19T14:31:46;100554.94;;;13.74;66.29
43119;BME280;28729;49.838;8.650;2023-02-19T14:35:52;100547.69;;;13.73;66.26
43119;BME280;28729;49.838;8.650;2023-02-19T14:39:54;100553.75;;;13.70;66.47
43119;BME280;28729;49.838;8.650;2023-02-19T14:43:59;100564.00;;;13.70;66.36
43119;BME280;28729;49.838;8.650;2023-02-19T14:48:02;100560.38;;;13.52;67.27
43119;BME280;28729;49.838;8.650;2023-02-19T14:52:06;100558.38;;;13.48;67.36
43119;BME280;28729;49.838;8.650;2023-02-19T14:56:21;100563.97;;;13.36;68.42
43119;BME280;28729;49.838;8.650;2023-02-19T15:00:29;100569.13;;;13.15;71.27
43119;BME280;28729;49.838;8.650;2023-02-19T15:04:35;100582.97;;;12.75;77.27
43119;BME280;28729;49.838;8.650;2023-02-19T15:08:41;100580.25;;;12.63;78.17
43119;BME280;28729;49.838;8.650;2023-02-19T15:12:52;100577.97;;;12.60;79.40
43119;BME280;28729;49.838;8.650;2023-02-19T15:16:59;100576.78;;;12.56;79.29
43119;BME280;28729;49.838;8.650;2023-02-19T15:21:03;100579.31;;;12.46;79.26
43119;BME280;28729;49.838;8.650;2023-02-19T15:25:07;100579.31;;;12.46;78.36
43119;BME280;28729;49.838;8.650;2023-02-19T15:29:18;100584.75;;;12.41;78.40
43119;BME280;28729;49.838;8.650;2023-02-19T15:33:20;100599.91;;;12.26;78.32
43119;BME280;28729;49.838;8.650;2023-02-19T15:37:23;100586.31;;;12.25;78.27
43119;BME280;28729;49.838;8.650;2023-02-19T15:41:28;100608.09;;;12.21;78.52
43119;BME280;28729;49.838;8.650;2023-02-19T15:45:40;100608.81;;;12.17;79.49
43119;BME280;28729;49.838;8.650;2023-02-19T15:53:59;100626.97;;;11.17;95.86
43119;BME280;28729;49.838;8.650;2023-02-19T16:02:15;100629.50;;;10.52;100.00
43119;BME280;28729;49.838;8.650;2023-02-19T16:06:17;100624.53;;;10.42;100.00
43119;BME280;28729;49.838;8.650;2023-02-19T16:10:24;100615.63;;;10.40;100.00
43119;BME280;28729;49.838;8.650;2023-02-19T16:14:36;100606.91;;;10.43;100.00
43119;BME280;28729;49.838;8.650;2023-02-19T16:18:43;100598.72;;;10.36;100.00
43119;BME280;28729;49.838;8.650;2023-02-19T16:22:46;100586.50;;;10.32;100.00
43119;BME280;28729;49.838;8.650;2023-02-19T16:26:47;100586.94;;;10.29;100.00
43119;BME280;28729;49.838;8.650;2023-02-19T16:30:59;100589.53;;;10.24;100.00
43119;BME280;28729;49.838;8.650;2023-02-19T16:35:01;100598.84;;;10.23;100.00
43119;BME280;28729;49.838;8.650;2023-02-19T16:47:24;100597.78;;;10.24;100.00
43119;BME280;28729;49.838;8.650;2023-02-19T16:51:26;100610.28;;;10.26;100.00
43119;BME280;28729;49.838;8.650;2023-02-19T16:55:29;100607.91;;;10.30;100.00
43119;BME280;28729;49.838;8.650;2023-02-19T16:59:35;100614.06;;;10.32;100.00
43119;BME280;28729;49.838;8.650;2023-02-19T17:03:37;100614.06;;;10.32;100.00
43119;BME280;28729;49.838;8.650;2023-02-19T17:07:39;100625.66;;;10.34;100.00
43119;BME280;28729;49.838;8.650;2023-02-19T17:11:41;100639.44;;;10.34;100.00
43119;BME280;28729;49.838;8.650;2023-02-19T17:15:43;100650.00;;;10.37;100.00
43119;BME280;28729;49.838;8.650;2023-02-19T17:19:44;100663.19;;;10.35;100.00
43119;BME280;28729;49.838;8.650;2023-02-19T17:23:46;100679.09;;;10.33;100.00
43119;BME280;28729;49.838;8.650;2023-02-19T17:27:48;100676.34;;;10.33;100.00
43119;BME280;28729;49.838;8.650;2023-02-19T17:31:49;100677.41;;;10.32;100.00
43119;BME280;28729;49.838;8.650;2023-02-19T17:35:52;100684.81;;;10.32;100.00
43119;BME280;28729;49.838;8.650;2023-02-19T17:39:53;100698.59;;;10.32;100.00
43119;BME280;28729;49.838;8.650;2023-02-19T17:43:55;100702.63;;;10.29;100.00
43119;BME280;28729;49.838;8.650;2023-02-19T17:47:57;100703.94;;;10.26;100.00
43119;BME280;28729;49.838;8.650;2023-02-19T17:51:59;100715.81;;;10.27;100.00
43119;BME280;28729;49.838;8.650;2023-02-19T17:56:00;100725.53;;;10.23;100.00
43119;BME280;28729;49.838;8.650;2023-02-19T18:00:02;100727.25;;;10.24;100.00
43119;BME280;28729;49.838;8.650;2023-02-19T18:04:12;100719.81;;;10.24;100.00
43119;BME280;28729;49.838;8.650;2023-02-19T18:08:14;100714.53;;;10.23;100.00
43119;BME280;28729;49.838;8.650;2023-02-19T18:12:15;100735.72;;;10.22;100.00
43119;BME280;28729;49.838;8.650;2023-02-19T18:16:17;100737.44;;;10.23;100.00
43119;BME280;28729;49.838;8.650;2023-02-19T18:20:25;100745.91;;;10.22;100.00
43119;BME280;28729;49.838;8.650;2023-02-19T18:24:26;100748.44;;;10.23;100.00
43119;BME280;28729;49.838;8.650;2023-02-19T18:28:28;100756.03;;;10.28;100.00
43119;BME280;28729;49.838;8.650;2023-02-19T18:32:30;100765.97;;;10.29;100.00
43119;BME280;28729;49.838;8.650;2023-02-19T18:36:31;100775.97;;;10.30;100.00
43119;BME280;28729;49.838;8.650;2023-02-19T18:40:33;100781.03;;;10.33;100.00
43119;BME280;28729;49.838;8.650;2023-02-19T18:44:36;100774.22;;;10.36;100.00
43119;BME280;28729;49.838;8.650;2023-02-19T18:48:38;100777.19;;;10.34;100.00
43119;BME280;28729;49.838;8.650;2023-02-19T18:52:39;100780.56;;;10.36;100.00
43119;BME280;28729;49.838;8.650;2023-02-19T18:56:45;100778.25;;;10.33;100.00
43119;BME280;28729;49.838;8.650;2023-02-19T19:00:46;100773.84;;;10.32;100.00
43119;BME280;28729;49.838;8.650;2023-02-19T19:04:51;100777.44;;;10.33;100.00
43119;BME280;28729;49.838;8.650;2023-02-19T19:08:53;100784.84;;;10.32;100.00
43119;BME280;28729;49.838;8.650;2023-02-19T19:12:55;100766.63;;;10.31;100.00
43119;BME280;28729;49.838;8.650;2023-02-19T19:16:58;100772.56;;;10.28;100.00
43119;BME280;28729;49.838;8.650;2023-02-19T19:21:00;100771.50;;;10.29;100.00
43119;BME280;28729;49.838;8.650;2023-02-19T19:25:03;100767.06;;;10.28;100.00
43119;BME280;28729;49.838;8.650;2023-02-19T19:29:06;100774.66;;;10.26;100.00
43119;BME280;28729;49.838;8.650;2023-02-19T19:33:08;100778.09;;;10.28;100.00
43119;BME280;28729;49.838;8.650;2023-02-19T19:37:10;100774.25;;;10.29;100.00
43119;BME280;28729;49.838;8.650;2023-02-19T19:41:14;100776.59;;;10.32;100.00
43119;BME280;28729;49.838;8.650;2023-02-19T19:45:16;100781.03;;;10.33;100.00
43119;BME280;28729;49.838;8.650;2023-02-19T19:49:20;100783.31;;;10.36;100.00
43119;BME280;28729;49.838;8.650;2023-02-19T19:53:22;100786.91;;;10.37;100.00
43119;BME280;28729;49.838;8.650;2023-02-19T19:57:24;100782.03;;;10.39;100.00
43119;BME280;28729;49.838;8.650;2023-02-19T20:01:26;100780.13;;;10.39;100.00
43119;BME280;28729;49.838;8.650;2023-02-19T20:05:27;100790.06;;;10.40;100.00
43119;BME280;28729;49.838;8.650;2023-02-19T20:09:29;100789.84;;;10.42;100.00
43119;BME280;28729;49.838;8.650;2023-02-19T20:13:31;100796.19;;;10.42;100.00
43119;BME280;28729;49.838;8.650;2023-02-19T20:17:34;100794.28;;;10.43;100.00
43119;BME280;28729;49.838;8.650;2023-02-19T20:21:36;100800.03;;;10.41;100.00
43119;BME280;28729;49.838;8.650;2023-02-19T20:25:38;100803.63;;;10.42;100.00
43119;BME280;28729;49.838;8.650;2023-02-19T20:29:40;100799.41;;;10.39;100.00
43119;BME280;28729;49.838;8.650;2023-02-19T20:33:44;100794.72;;;10.40;100.00
43119;BME280;28729;49.838;8.650;2023-02-19T20:37:47;100812.34;;;10.39;100.00
43119;BME280;28729;49.838;8.650;2023-02-19T20:41:50;100812.56;;;10.37;100.00
43119;BME280;28729;49.838;8.650;2023-02-19T20:45:52;100813.38;;;10.38;100.00
43119;BME280;28729;49.838;8.650;2023-02-19T20:49:53;100827.63;;;10.35;100.00
43119;BME280;28729;49.838;8.650;2023-02-19T20:53:55;100833.75;;;10.37;100.00
43119;BME280;28729;49.838;8.650;2023-02-19T20:57:57;100835.03;;;10.34;100.00
43119;BME280;28729;49.838;8.650;2023-02-19T21:01:58;100837.78;;;10.34;100.00
43119;BME280;28729;49.838;8.650;2023-02-19T21:06:01;100821.06;;;10.36;100.00
43119;BME280;28729;49.838;8.650;2023-02-19T21:10:02;100819.59;;;10.33;100.00
43119;BME280;28729;49.838;8.650;2023-02-19T21:14:04;100824.47;;;10.31;100.00
43119;BME280;28729;49.838;8.650;2023-02-19T21:18:06;100816.66;;;10.28;100.00
43119;BME280;28729;49.838;8.650;2023-02-19T21:22:07;100817.28;;;10.30;100.00
43119;BME280;28729;49.838;8.650;2023-02-19T21:26:09;100819.66;;;10.26;100.00
43119;BME280;28729;49.838;8.650;2023-02-19T21:30:12;100831.06;;;10.23;100.00
43119;BME280;28729;49.838;8.650;2023-02-19T21:34:17;100842.53;;;10.27;100.00
43119;BME280;28729;49.838;8.650;2023-02-19T21:38:18;100844.19;;;10.28;100.00
43119;BME280;28729;49.838;8.650;2023-02-19T21:42:20;100852.47;;;10.28;100.00
43119;BME280;28729;49.838;8.650;2023-02-19T21:46:22;100850.53;;;10.29;100.00
43119;BME280;28729;49.838;8.650;2023-02-19T21:50:24;100845.44;;;10.25;100.00
43119;BME280;28729;49.838;8.650;2023-02-19T21:54:25;100852.25;;;10.23;100.00
43119;BME280;28729;49.838;8.650;2023-02-19T21:58:27;100852.69;;;10.20;100.00
43119;BME280;28729;49.838;8.650;2023-02-19T22:02:29;100847.19;;;10.20;100.00
43119;BME280;28729;49.838;8.650;2023-02-19T22:06:30;100853.75;;;10.19;100.00
43119;BME280;28729;49.838;8.650;2023-02-19T22:10:32;100851.25;;;10.17;100.00
43119;BME280;28729;49.838;8.650;2023-02-19T22:14:33;100846.34;;;10.19;100.00
43119;BME280;28729;49.838;8.650;2023-02-19T22:18:35;100845.06;;;10.22;100.00
43119;BME280;28729;49.838;8.650;2023-02-19T22:22:37;100851.41;;;10.22;100.00
43119;BME280;28729;49.838;8.650;2023-02-19T22:26:38;100857.75;;;10.23;100.00
43119;BME280;28729;49.838;8.650;2023-02-19T22:30:40;100859.91;;;10.21;100.00
43119;BME280;28729;49.838;8.650;2023-02-19T22:34:43;100867.53;;;10.19;100.00
43119;BME280;28729;49.838;8.650;2023-02-19T22:38:45;100866.69;;;10.18;100.00
43119;BME280;28729;49.838;8.650;2023-02-19T22:42:46;100868.38;;;10.19;100.00
43119;BME280;28729;49.838;8.650;2023-02-19T22:46:53;100870.09;;;10.20;100.00
43119;BME280;28729;49.838;8.650;2023-02-19T22:50:55;100872.59;;;10.22;100.00
43119;BME280;28729;49.838;8.650;2023-02-19T22:54:58;100863.56;;;10.15;100.00
43119;BME280;28729;49.838;8.650;2023-02-19T22:59:00;100864.00;;;10.12;100.00
43119;BME280;28729;49.838;8.650;2023-02-19T23:03:02;100868.88;;;10.10;100.00
43119;BME280;28729;49.838;8.650;2023-02-19T23:07:06;100870.16;;;10.07;100.00